sensor_id;sensor_type;location;lat;lon;timestamp;temperature;humidity
12959;DHT22;6544;51.666;6.634;2022-08-05T00:01:48;19.10;99.90
12959;DHT22;6544;51.666;6.634;2022-08-05T00:04:15;19.10;99.90
12959;DHT22;6544;51.666;6.634;2022-08-05T00:06:44;19.20;99.90
12959;DHT22;6544;51.666;6.634;2022-08-05T00:09:11;19.20;99.90
12959;DHT22;6544;51.666;6.634;2022-08-05T00:11:38;19.20;99.90
12959;DHT22;6544;51.666;6.634;2022-08-05T00:14:05;19.20;99.90
12959;DHT22;6544;51.666;6.634;2022-08-05T00:16:32;19.20;99.90
12959;DHT22;6544;51.666;6.634;2022-08-05T00:18:59;19.20;99.90
12959;DHT22;6544;51.666;6.634;2022-08-05T00:21:26;19.00;99.90
12959;DHT22;6544;51.666;6.634;2022-08-05T00:23:54;19.00;99.90
12959;DHT22;6544;51.666;6.634;2022-08-05T00:26:21;19.00;99.90
12959;DHT22;6544;51.666;6.634;2022-08-05T00:28:48;19.00;99.90
12959;DHT22;6544;51.666;6.634;2022-08-05T00:31:16;18.90;99.90
12959;DHT22;6544;51.666;6.634;2022-08-05T00:33:43;18.80;99.90
12959;DHT22;6544;51.666;6.634;2022-08-05T00:36:10;18.80;99.90
12959;DHT22;6544;51.666;6.634;2022-08-05T00:38:36;18.80;99.90
12959;DHT22;6544;51.666;6.634;2022-08-05T00:41:06;19.00;99.90
12959;DHT22;6544;51.666;6.634;2022-08-05T00:43:33;19.10;99.90
12959;DHT22;6544;51.666;6.634;2022-08-05T00:46:01;19.10;99.90
12959;DHT22;6544;51.666;6.634;2022-08-05T00:48:28;19.00;99.90
12959;DHT22;6544;51.666;6.634;2022-08-05T00:50:55;19.00;99.90
12959;DHT22;6544;51.666;6.634;2022-08-05T00:53:22;18.80;99.90
12959;DHT22;6544;51.666;6.634;2022-08-05T00:55:49;18.70;99.90
12959;DHT22;6544;51.666;6.634;2022-08-05T00:58:18;18.80;99.90
12959;DHT22;6544;51.666;6.634;2022-08-05T01:00:45;18.70;99.90
12959;DHT22;6544;51.666;6.634;2022-08-05T01:03:13;18.70;99.90
12959;DHT22;6544;51.666;6.634;2022-08-05T01:05:40;18.90;99.90
12959;DHT22;6544;51.666;6.634;2022-08-05T01:08:06;19.00;99.90
12959;DHT22;6544;51.666;6.634;2022-08-05T01:10:42;19.10;99.90
12959;DHT22;6544;51.666;6.634;2022-08-05T01:13:15;18.90;99.90
12959;DHT22;6544;51.666;6.634;2022-08-05T01:15:56;18.80;99.90
12959;DHT22;6544;51.666;6.634;2022-08-05T01:18:25;18.80;99.90
12959;DHT22;6544;51.666;6.634;2022-08-05T01:21:03;18.70;99.90
12959;DHT22;6544;51.666;6.634;2022-08-05T01:23:43;18.90;99.90
12959;DHT22;6544;51.666;6.634;2022-08-05T01:26:20;19.10;99.90
12959;DHT22;6544;51.666;6.634;2022-08-05T01:28:56;19.20;99.90
12959;DHT22;6544;51.666;6.634;2022-08-05T01:31:28;19.00;99.90
12959;DHT22;6544;51.666;6.634;2022-08-05T01:34:02;18.90;99.90
12959;DHT22;6544;51.666;6.634;2022-08-05T01:36:34;19.20;99.90
12959;DHT22;6544;51.666;6.634;2022-08-05T01:39:01;19.20;99.90
12959;DHT22;6544;51.666;6.634;2022-08-05T01:41:33;19.30;99.90
12959;DHT22;6544;51.666;6.634;2022-08-05T01:44:02;19.10;99.90
12959;DHT22;6544;51.666;6.634;2022-08-05T01:46:32;19.10;99.90
12959;DHT22;6544;51.666;6.634;2022-08-05T01:49:01;19.00;99.90
12959;DHT22;6544;51.666;6.634;2022-08-05T01:51:30;18.90;99.90
12959;DHT22;6544;51.666;6.634;2022-08-05T01:54:00;18.90;99.90
12959;DHT22;6544;51.666;6.634;2022-08-05T01:56:29;19.10;99.90
12959;DHT22;6544;51.666;6.634;2022-08-05T01:58:57;19.10;99.90
12959;DHT22;6544;51.666;6.634;2022-08-05T02:01:29;19.00;99.90
12959;DHT22;6544;51.666;6.634;2022-08-05T02:03:58;19.00;99.90
12959;DHT22;6544;51.666;6.634;2022-08-05T02:06:26;18.90;99.90
12959;DHT22;6544;51.666;6.634;2022-08-05T02:08:53;18.80;99.90
12959;DHT22;6544;51.666;6.634;2022-08-05T02:11:21;19.00;99.90
12959;DHT22;6544;51.666;6.634;2022-08-05T02:13:53;18.80;99.90
12959;DHT22;6544;51.666;6.634;2022-08-05T02:16:24;18.80;99.90
12959;DHT22;6544;51.666;6.634;2022-08-05T02:18:56;18.90;99.90
12959;DHT22;6544;51.666;6.634;2022-08-05T02:21:27;18.90;99.90
12959;DHT22;6544;51.666;6.634;2022-08-05T02:23:58;18.80;99.90
12959;DHT22;6544;51.666;6.634;2022-08-05T02:26:32;19.10;99.90
12959;DHT22;6544;51.666;6.634;2022-08-05T02:29:01;19.30;99.90
12959;DHT22;6544;51.666;6.634;2022-08-05T02:31:30;19.30;99.90
12959;DHT22;6544;51.666;6.634;2022-08-05T02:34:02;19.20;99.90
12959;DHT22;6544;51.666;6.634;2022-08-05T02:36:31;19.30;99.90
12959;DHT22;6544;51.666;6.634;2022-08-05T02:39:02;18.90;99.90
12959;DHT22;6544;51.666;6.634;2022-08-05T02:41:31;18.90;99.90
12959;DHT22;6544;51.666;6.634;2022-08-05T02:43:59;18.90;99.90
12959;DHT22;6544;51.666;6.634;2022-08-05T02:46:28;18.90;99.90
12959;DHT22;6544;51.666;6.634;2022-08-05T02:48:55;19.10;99.90
12959;DHT22;6544;51.666;6.634;2022-08-05T02:51:24;19.00;99.90
12959;DHT22;6544;51.666;6.634;2022-08-05T02:53:52;18.90;99.90
12959;DHT22;6544;51.666;6.634;2022-08-05T02:56:20;18.70;99.90
12959;DHT22;6544;51.666;6.634;2022-08-05T02:58:48;18.70;99.90
12959;DHT22;6544;51.666;6.634;2022-08-05T03:01:19;18.70;99.90
12959;DHT22;6544;51.666;6.634;2022-08-05T03:03:49;18.60;99.90
12959;DHT22;6544;51.666;6.634;2022-08-05T03:06:19;18.70;99.90
12959;DHT22;6544;51.666;6.634;2022-08-05T03:08:49;18.70;99.90
12959;DHT22;6544;51.666;6.634;2022-08-05T03:11:18;18.80;99.90
12959;DHT22;6544;51.666;6.634;2022-08-05T03:13:45;18.70;99.90
12959;DHT22;6544;51.666;6.634;2022-08-05T03:16:12;18.80;99.90
12959;DHT22;6544;51.666;6.634;2022-08-05T03:18:39;18.60;99.90
12959;DHT22;6544;51.666;6.634;2022-08-05T03:21:07;18.60;99.90
12959;DHT22;6544;51.666;6.634;2022-08-05T03:23:34;18.40;99.90
12959;DHT22;6544;51.666;6.634;2022-08-05T03:26:03;18.20;99.90
12959;DHT22;6544;51.666;6.634;2022-08-05T03:28:31;18.10;99.90
12959;DHT22;6544;51.666;6.634;2022-08-05T03:31:00;17.90;99.90
12959;DHT22;6544;51.666;6.634;2022-08-05T03:33:27;17.90;99.90
12959;DHT22;6544;51.666;6.634;2022-08-05T03:35:55;17.80;99.90
12959;DHT22;6544;51.666;6.634;2022-08-05T03:38:23;17.80;99.90
12959;DHT22;6544;51.666;6.634;2022-08-05T03:40:50;17.80;99.90
12959;DHT22;6544;51.666;6.634;2022-08-05T03:43:19;17.90;99.90
12959;DHT22;6544;51.666;6.634;2022-08-05T03:45:49;17.90;99.90
12959;DHT22;6544;51.666;6.634;2022-08-05T03:48:16;17.90;99.90
12959;DHT22;6544;51.666;6.634;2022-08-05T03:50:49;17.80;99.90
12959;DHT22;6544;51.666;6.634;2022-08-05T03:53:22;17.60;99.90
12959;DHT22;6544;51.666;6.634;2022-08-05T03:55:57;17.60;99.90
12959;DHT22;6544;51.666;6.634;2022-08-05T03:58:30;17.50;99.90
12959;DHT22;6544;51.666;6.634;2022-08-05T04:01:00;17.40;99.90
12959;DHT22;6544;51.666;6.634;2022-08-05T04:03:28;17.30;99.90
12959;DHT22;6544;51.666;6.634;2022-08-05T04:06:01;17.50;99.90
12959;DHT22;6544;51.666;6.634;2022-08-05T04:08:28;17.60;99.90
12959;DHT22;6544;51.666;6.634;2022-08-05T04:10:56;17.80;99.90
12959;DHT22;6544;51.666;6.634;2022-08-05T04:13:24;17.80;99.90
12959;DHT22;6544;51.666;6.634;2022-08-05T04:15:53;17.80;99.90
12959;DHT22;6544;51.666;6.634;2022-08-05T04:18:22;17.80;99.90
12959;DHT22;6544;51.666;6.634;2022-08-05T04:20:52;17.80;99.90
12959;DHT22;6544;51.666;6.634;2022-08-05T04:23:22;17.80;99.90
12959;DHT22;6544;51.666;6.634;2022-08-05T04:25:49;17.90;99.90
12959;DHT22;6544;51.666;6.634;2022-08-05T04:28:16;17.60;99.90
12959;DHT22;6544;51.666;6.634;2022-08-05T04:30:44;17.60;99.90
12959;DHT22;6544;51.666;6.634;2022-08-05T04:33:13;17.40;99.90
12959;DHT22;6544;51.666;6.634;2022-08-05T04:35:41;17.30;99.90
12959;DHT22;6544;51.666;6.634;2022-08-05T04:38:09;17.30;99.90
12959;DHT22;6544;51.666;6.634;2022-08-05T04:40:36;17.30;99.90
12959;DHT22;6544;51.666;6.634;2022-08-05T04:43:04;17.30;99.90
12959;DHT22;6544;51.666;6.634;2022-08-05T04:45:31;17.30;99.90
12959;DHT22;6544;51.666;6.634;2022-08-05T04:48:05;17.40;99.90
12959;DHT22;6544;51.666;6.634;2022-08-05T04:50:39;17.60;99.90
12959;DHT22;6544;51.666;6.634;2022-08-05T04:53:07;17.60;99.90
12959;DHT22;6544;51.666;6.634;2022-08-05T04:55:35;17.70;99.90
12959;DHT22;6544;51.666;6.634;2022-08-05T04:58:03;17.40;99.90
12959;DHT22;6544;51.666;6.634;2022-08-05T05:00:31;17.40;99.90
12959;DHT22;6544;51.666;6.634;2022-08-05T05:02:58;17.30;99.90
12959;DHT22;6544;51.666;6.634;2022-08-05T05:05:25;17.30;99.90
12959;DHT22;6544;51.666;6.634;2022-08-05T05:07:54;17.30;99.90
12959;DHT22;6544;51.666;6.634;2022-08-05T05:10:21;17.30;99.90
12959;DHT22;6544;51.666;6.634;2022-08-05T05:12:48;17.30;99.90
12959;DHT22;6544;51.666;6.634;2022-08-05T05:15:16;17.40;99.90
12959;DHT22;6544;51.666;6.634;2022-08-05T05:17:43;17.40;99.90
12959;DHT22;6544;51.666;6.634;2022-08-05T05:20:12;17.40;99.90
12959;DHT22;6544;51.666;6.634;2022-08-05T05:22:39;17.20;99.90
12959;DHT22;6544;51.666;6.634;2022-08-05T05:25:09;17.40;99.90
12959;DHT22;6544;51.666;6.634;2022-08-05T05:27:36;17.30;99.90
12959;DHT22;6544;51.666;6.634;2022-08-05T05:30:05;17.30;99.90
12959;DHT22;6544;51.666;6.634;2022-08-05T05:32:32;17.30;99.90
12959;DHT22;6544;51.666;6.634;2022-08-05T05:34:59;17.20;99.90
12959;DHT22;6544;51.666;6.634;2022-08-05T05:37:26;17.20;99.90
12959;DHT22;6544;51.666;6.634;2022-08-05T05:39:53;17.10;99.90
12959;DHT22;6544;51.666;6.634;2022-08-05T05:42:21;17.00;99.90
12959;DHT22;6544;51.666;6.634;2022-08-05T05:44:48;17.00;99.90
12959;DHT22;6544;51.666;6.634;2022-08-05T05:47:15;17.10;99.90
12959;DHT22;6544;51.666;6.634;2022-08-05T05:49:42;16.90;99.90
12959;DHT22;6544;51.666;6.634;2022-08-05T05:52:09;17.00;99.90
12959;DHT22;6544;51.666;6.634;2022-08-05T05:54:35;16.80;99.90
12959;DHT22;6544;51.666;6.634;2022-08-05T05:57:03;16.80;99.90
12959;DHT22;6544;51.666;6.634;2022-08-05T05:59:31;16.70;99.90
12959;DHT22;6544;51.666;6.634;2022-08-05T06:01:58;16.80;99.90
12959;DHT22;6544;51.666;6.634;2022-08-05T06:04:25;16.60;99.90
12959;DHT22;6544;51.666;6.634;2022-08-05T06:06:52;16.50;99.90
12959;DHT22;6544;51.666;6.634;2022-08-05T06:09:19;16.80;99.90
12959;DHT22;6544;51.666;6.634;2022-08-05T06:11:46;16.70;99.90
12959;DHT22;6544;51.666;6.634;2022-08-05T06:14:13;16.60;99.90
12959;DHT22;6544;51.666;6.634;2022-08-05T06:16:41;16.40;99.90
12959;DHT22;6544;51.666;6.634;2022-08-05T06:19:08;16.40;99.90
12959;DHT22;6544;51.666;6.634;2022-08-05T06:21:35;16.40;99.90
12959;DHT22;6544;51.666;6.634;2022-08-05T06:24:03;16.40;99.90
12959;DHT22;6544;51.666;6.634;2022-08-05T06:26:30;16.40;99.90
12959;DHT22;6544;51.666;6.634;2022-08-05T06:28:57;16.30;99.90
12959;DHT22;6544;51.666;6.634;2022-08-05T06:31:24;16.40;99.90
12959;DHT22;6544;51.666;6.634;2022-08-05T06:33:52;16.50;99.90
12959;DHT22;6544;51.666;6.634;2022-08-05T06:36:20;16.50;99.90
12959;DHT22;6544;51.666;6.634;2022-08-05T06:38:48;16.60;99.90
12959;DHT22;6544;51.666;6.634;2022-08-05T06:41:18;16.60;99.90
12959;DHT22;6544;51.666;6.634;2022-08-05T06:43:45;16.60;99.90
12959;DHT22;6544;51.666;6.634;2022-08-05T06:46:12;16.60;99.90
12959;DHT22;6544;51.666;6.634;2022-08-05T06:48:39;16.40;99.90
12959;DHT22;6544;51.666;6.634;2022-08-05T06:51:07;16.60;99.90
12959;DHT22;6544;51.666;6.634;2022-08-05T06:53:34;16.70;99.90
12959;DHT22;6544;51.666;6.634;2022-08-05T06:56:01;16.70;99.90
12959;DHT22;6544;51.666;6.634;2022-08-05T06:58:29;16.80;99.90
12959;DHT22;6544;51.666;6.634;2022-08-05T07:00:57;16.70;99.90
12959;DHT22;6544;51.666;6.634;2022-08-05T07:03:24;16.70;99.90
12959;DHT22;6544;51.666;6.634;2022-08-05T07:05:51;16.80;99.90
12959;DHT22;6544;51.666;6.634;2022-08-05T07:08:19;16.80;99.90
12959;DHT22;6544;51.666;6.634;2022-08-05T07:10:47;16.70;99.90
12959;DHT22;6544;51.666;6.634;2022-08-05T07:13:14;16.80;99.90
12959;DHT22;6544;51.666;6.634;2022-08-05T07:15:58;16.80;99.90
12959;DHT22;6544;51.666;6.634;2022-08-05T07:18:42;16.60;99.90
12959;DHT22;6544;51.666;6.634;2022-08-05T07:21:09;16.80;99.90
12959;DHT22;6544;51.666;6.634;2022-08-05T07:23:38;16.70;99.90
12959;DHT22;6544;51.666;6.634;2022-08-05T07:26:05;16.80;99.90
12959;DHT22;6544;51.666;6.634;2022-08-05T07:28:32;16.90;99.90
12959;DHT22;6544;51.666;6.634;2022-08-05T07:30:59;17.00;99.90
12959;DHT22;6544;51.666;6.634;2022-08-05T07:33:26;17.00;99.90
12959;DHT22;6544;51.666;6.634;2022-08-05T07:35:53;16.90;99.90
12959;DHT22;6544;51.666;6.634;2022-08-05T07:38:20;16.90;99.90
12959;DHT22;6544;51.666;6.634;2022-08-05T07:40:48;16.90;99.90
12959;DHT22;6544;51.666;6.634;2022-08-05T07:43:15;16.90;99.90
12959;DHT22;6544;51.666;6.634;2022-08-05T07:45:42;17.00;99.90
12959;DHT22;6544;51.666;6.634;2022-08-05T07:48:09;16.90;99.90
12959;DHT22;6544;51.666;6.634;2022-08-05T07:50:36;16.90;99.90
12959;DHT22;6544;51.666;6.634;2022-08-05T07:53:03;16.80;99.90
12959;DHT22;6544;51.666;6.634;2022-08-05T07:55:30;16.80;99.90
12959;DHT22;6544;51.666;6.634;2022-08-05T07:57:58;16.90;99.90
12959;DHT22;6544;51.666;6.634;2022-08-05T08:00:25;17.10;99.90
12959;DHT22;6544;51.666;6.634;2022-08-05T08:02:52;17.20;99.90
12959;DHT22;6544;51.666;6.634;2022-08-05T08:05:19;17.20;99.90
12959;DHT22;6544;51.666;6.634;2022-08-05T08:07:46;17.30;99.90
12959;DHT22;6544;51.666;6.634;2022-08-05T08:10:13;17.20;99.90
12959;DHT22;6544;51.666;6.634;2022-08-05T08:12:40;17.10;99.90
12959;DHT22;6544;51.666;6.634;2022-08-05T08:15:10;17.00;99.90
12959;DHT22;6544;51.666;6.634;2022-08-05T08:17:37;17.00;99.90
12959;DHT22;6544;51.666;6.634;2022-08-05T08:20:04;16.90;99.90
12959;DHT22;6544;51.666;6.634;2022-08-05T08:22:31;16.90;99.90
12959;DHT22;6544;51.666;6.634;2022-08-05T08:24:59;16.90;99.90
12959;DHT22;6544;51.666;6.634;2022-08-05T08:27:26;17.10;99.90
12959;DHT22;6544;51.666;6.634;2022-08-05T08:29:53;17.00;99.90
12959;DHT22;6544;51.666;6.634;2022-08-05T08:32:21;16.90;99.90
12959;DHT22;6544;51.666;6.634;2022-08-05T08:34:48;16.90;99.90
12959;DHT22;6544;51.666;6.634;2022-08-05T08:37:15;17.00;99.90
12959;DHT22;6544;51.666;6.634;2022-08-05T08:39:42;17.10;99.90
12959;DHT22;6544;51.666;6.634;2022-08-05T08:42:09;17.20;99.90
12959;DHT22;6544;51.666;6.634;2022-08-05T08:44:37;17.40;99.90
12959;DHT22;6544;51.666;6.634;2022-08-05T08:47:06;17.10;99.90
12959;DHT22;6544;51.666;6.634;2022-08-05T08:49:35;17.10;99.90
12959;DHT22;6544;51.666;6.634;2022-08-05T08:52:10;17.20;99.90
12959;DHT22;6544;51.666;6.634;2022-08-05T08:54:38;17.40;99.90
12959;DHT22;6544;51.666;6.634;2022-08-05T08:57:05;17.30;99.90
12959;DHT22;6544;51.666;6.634;2022-08-05T08:59:34;17.40;99.90
12959;DHT22;6544;51.666;6.634;2022-08-05T09:02:04;17.50;99.90
12959;DHT22;6544;51.666;6.634;2022-08-05T09:04:34;17.50;99.90
12959;DHT22;6544;51.666;6.634;2022-08-05T09:07:03;17.60;99.90
12959;DHT22;6544;51.666;6.634;2022-08-05T09:09:31;17.50;99.90
12959;DHT22;6544;51.666;6.634;2022-08-05T09:11:58;17.40;99.90
12959;DHT22;6544;51.666;6.634;2022-08-05T09:14:25;17.50;99.90
12959;DHT22;6544;51.666;6.634;2022-08-05T09:16:52;17.50;99.90
12959;DHT22;6544;51.666;6.634;2022-08-05T09:19:19;17.40;99.90
12959;DHT22;6544;51.666;6.634;2022-08-05T09:21:48;17.40;99.90
12959;DHT22;6544;51.666;6.634;2022-08-05T09:24:15;17.50;99.90
12959;DHT22;6544;51.666;6.634;2022-08-05T09:26:45;17.70;99.90
12959;DHT22;6544;51.666;6.634;2022-08-05T09:29:13;17.70;99.90
12959;DHT22;6544;51.666;6.634;2022-08-05T09:31:40;17.80;99.90
12959;DHT22;6544;51.666;6.634;2022-08-05T09:34:09;17.90;99.90
12959;DHT22;6544;51.666;6.634;2022-08-05T09:36:43;18.00;99.90
12959;DHT22;6544;51.666;6.634;2022-08-05T09:39:12;17.90;99.90
12959;DHT22;6544;51.666;6.634;2022-08-05T09:41:56;18.10;99.90
12959;DHT22;6544;51.666;6.634;2022-08-05T09:44:37;18.20;99.90
12959;DHT22;6544;51.666;6.634;2022-08-05T09:47:10;18.30;99.90
12959;DHT22;6544;51.666;6.634;2022-08-05T09:49:42;18.20;99.90
12959;DHT22;6544;51.666;6.634;2022-08-05T09:52:24;18.30;99.90
12959;DHT22;6544;51.666;6.634;2022-08-05T09:54:58;18.30;99.90
12959;DHT22;6544;51.666;6.634;2022-08-05T09:57:30;18.50;99.90
12959;DHT22;6544;51.666;6.634;2022-08-05T09:59:59;18.70;99.90
12959;DHT22;6544;51.666;6.634;2022-08-05T10:02:30;18.80;99.90
12959;DHT22;6544;51.666;6.634;2022-08-05T10:05:06;18.50;36.80
12959;DHT22;6544;51.666;6.634;2022-08-05T10:07:49;18.40;99.90
12959;DHT22;6544;51.666;6.634;2022-08-05T10:10:19;18.60;99.90
12959;DHT22;6544;51.666;6.634;2022-08-05T10:12:48;18.70;99.90
12959;DHT22;6544;51.666;6.634;2022-08-05T10:15:22;18.40;99.90
12959;DHT22;6544;51.666;6.634;2022-08-05T10:18:16;18.50;99.90
12959;DHT22;6544;51.666;6.634;2022-08-05T10:20:46;18.60;99.90
12959;DHT22;6544;51.666;6.634;2022-08-05T10:23:15;18.80;99.90
12959;DHT22;6544;51.666;6.634;2022-08-05T10:25:44;19.10;99.90
12959;DHT22;6544;51.666;6.634;2022-08-05T10:28:11;19.10;1.00
12959;DHT22;6544;51.666;6.634;2022-08-05T10:30:38;19.30;1.00
12959;DHT22;6544;51.666;6.634;2022-08-05T10:33:06;19.50;1.00
12959;DHT22;6544;51.666;6.634;2022-08-05T10:35:34;19.50;1.00
12959;DHT22;6544;51.666;6.634;2022-08-05T10:38:02;19.60;1.00
12959;DHT22;6544;51.666;6.634;2022-08-05T10:40:33;19.50;1.00
12959;DHT22;6544;51.666;6.634;2022-08-05T10:43:08;19.40;1.00
12959;DHT22;6544;51.666;6.634;2022-08-05T10:45:38;19.50;1.00
12959;DHT22;6544;51.666;6.634;2022-08-05T10:48:34;19.50;1.00
12959;DHT22;6544;51.666;6.634;2022-08-05T10:51:05;19.60;1.00
12959;DHT22;6544;51.666;6.634;2022-08-05T10:53:41;19.70;1.00
12959;DHT22;6544;51.666;6.634;2022-08-05T10:56:12;19.70;1.00
12959;DHT22;6544;51.666;6.634;2022-08-05T10:59:04;19.70;1.00
12959;DHT22;6544;51.666;6.634;2022-08-05T11:01:35;19.90;1.00
12959;DHT22;6544;51.666;6.634;2022-08-05T11:04:05;20.00;1.00
12959;DHT22;6544;51.666;6.634;2022-08-05T11:06:34;20.30;1.00
12959;DHT22;6544;51.666;6.634;2022-08-05T11:09:13;20.40;99.90
12959;DHT22;6544;51.666;6.634;2022-08-05T11:11:43;20.40;99.90
12959;DHT22;6544;51.666;6.634;2022-08-05T11:14:20;20.50;99.90
12959;DHT22;6544;51.666;6.634;2022-08-05T11:19:49;20.60;99.90
12959;DHT22;6544;51.666;6.634;2022-08-05T11:22:39;20.80;99.90
12959;DHT22;6544;51.666;6.634;2022-08-05T11:25:26;21.20;99.90
12959;DHT22;6544;51.666;6.634;2022-08-05T11:27:53;21.50;99.90
12959;DHT22;6544;51.666;6.634;2022-08-05T11:30:23;21.30;99.90
12959;DHT22;6544;51.666;6.634;2022-08-05T11:32:50;21.30;99.90
12959;DHT22;6544;51.666;6.634;2022-08-05T11:35:53;21.40;99.90
12959;DHT22;6544;51.666;6.634;2022-08-05T11:38:49;21.30;1.00
12959;DHT22;6544;51.666;6.634;2022-08-05T11:41:21;21.10;44.60
12959;DHT22;6544;51.666;6.634;2022-08-05T11:43:56;21.00;76.20
12959;DHT22;6544;51.666;6.634;2022-08-05T11:46:26;21.10;99.90
12959;DHT22;6544;51.666;6.634;2022-08-05T11:48:55;21.00;99.90
12959;DHT22;6544;51.666;6.634;2022-08-05T11:51:24;20.90;23.20
12959;DHT22;6544;51.666;6.634;2022-08-05T11:53:53;20.90;54.10
12959;DHT22;6544;51.666;6.634;2022-08-05T11:56:21;20.90;1.00
12959;DHT22;6544;51.666;6.634;2022-08-05T11:58:50;21.00;1.00
12959;DHT22;6544;51.666;6.634;2022-08-05T12:01:19;21.10;1.00
12959;DHT22;6544;51.666;6.634;2022-08-05T12:03:49;21.00;99.90
12959;DHT22;6544;51.666;6.634;2022-08-05T12:06:20;21.30;99.90
12959;DHT22;6544;51.666;6.634;2022-08-05T12:08:49;21.40;99.90
12959;DHT22;6544;51.666;6.634;2022-08-05T12:11:18;21.40;99.90
12959;DHT22;6544;51.666;6.634;2022-08-05T12:13:55;21.50;99.90
12959;DHT22;6544;51.666;6.634;2022-08-05T12:16:24;21.60;99.90
12959;DHT22;6544;51.666;6.634;2022-08-05T12:18:54;21.50;99.90
12959;DHT22;6544;51.666;6.634;2022-08-05T12:21:22;21.60;99.90
12959;DHT22;6544;51.666;6.634;2022-08-05T12:24:00;21.80;99.90
12959;DHT22;6544;51.666;6.634;2022-08-05T12:26:30;22.00;99.90
12959;DHT22;6544;51.666;6.634;2022-08-05T12:28:57;22.20;99.90
12959;DHT22;6544;51.666;6.634;2022-08-05T12:31:23;22.10;99.90
12959;DHT22;6544;51.666;6.634;2022-08-05T12:33:52;22.20;99.90
12959;DHT22;6544;51.666;6.634;2022-08-05T12:36:22;22.20;99.90
12959;DHT22;6544;51.666;6.634;2022-08-05T12:38:49;22.20;99.90
12959;DHT22;6544;51.666;6.634;2022-08-05T12:41:16;22.10;99.90
12959;DHT22;6544;51.666;6.634;2022-08-05T12:43:51;22.00;99.60
12959;DHT22;6544;51.666;6.634;2022-08-05T12:46:23;22.10;99.90
12959;DHT22;6544;51.666;6.634;2022-08-05T12:48:59;22.20;35.00
12959;DHT22;6544;51.666;6.634;2022-08-05T12:51:27;22.30;1.00
12959;DHT22;6544;51.666;6.634;2022-08-05T12:53:59;22.30;1.00
12959;DHT22;6544;51.666;6.634;2022-08-05T12:56:27;22.30;1.00
12959;DHT22;6544;51.666;6.634;2022-08-05T12:59:14;22.20;1.00
12959;DHT22;6544;51.666;6.634;2022-08-05T13:01:42;22.20;1.00
12959;DHT22;6544;51.666;6.634;2022-08-05T13:04:11;22.30;1.00
12959;DHT22;6544;51.666;6.634;2022-08-05T13:06:40;22.40;1.00
12959;DHT22;6544;51.666;6.634;2022-08-05T13:09:08;22.50;1.00
12959;DHT22;6544;51.666;6.634;2022-08-05T13:11:39;22.40;1.00
12959;DHT22;6544;51.666;6.634;2022-08-05T13:14:14;22.60;1.00
12959;DHT22;6544;51.666;6.634;2022-08-05T13:16:50;22.80;1.00
12959;DHT22;6544;51.666;6.634;2022-08-05T13:19:23;22.70;99.90
12959;DHT22;6544;51.666;6.634;2022-08-05T13:21:50;22.60;99.90
12959;DHT22;6544;51.666;6.634;2022-08-05T13:24:17;22.70;99.90
12959;DHT22;6544;51.666;6.634;2022-08-05T13:26:46;22.80;99.90
12959;DHT22;6544;51.666;6.634;2022-08-05T13:29:13;23.00;99.90
12959;DHT22;6544;51.666;6.634;2022-08-05T13:31:40;22.90;99.90
12959;DHT22;6544;51.666;6.634;2022-08-05T13:34:08;22.90;99.90
12959;DHT22;6544;51.666;6.634;2022-08-05T13:36:36;23.10;99.90
12959;DHT22;6544;51.666;6.634;2022-08-05T13:39:05;22.80;90.00
12959;DHT22;6544;51.666;6.634;2022-08-05T13:41:35;22.70;99.90
12959;DHT22;6544;51.666;6.634;2022-08-05T13:44:02;22.60;47.60
12959;DHT22;6544;51.666;6.634;2022-08-05T13:46:29;22.50;19.30
12959;DHT22;6544;51.666;6.634;2022-08-05T13:48:56;22.60;1.00
12959;DHT22;6544;51.666;6.634;2022-08-05T13:51:29;22.60;1.00
12959;DHT22;6544;51.666;6.634;2022-08-05T13:53:58;22.80;2.40
12959;DHT22;6544;51.666;6.634;2022-08-05T13:56:25;23.00;1.00
12959;DHT22;6544;51.666;6.634;2022-08-05T13:58:52;23.20;1.00
12959;DHT22;6544;51.666;6.634;2022-08-05T14:01:20;23.00;1.00
12959;DHT22;6544;51.666;6.634;2022-08-05T14:03:47;22.90;1.00
12959;DHT22;6544;51.666;6.634;2022-08-05T14:06:32;22.70;1.00
12959;DHT22;6544;51.666;6.634;2022-08-05T14:09:00;22.60;1.00
12959;DHT22;6544;51.666;6.634;2022-08-05T14:11:27;22.40;1.00
12959;DHT22;6544;51.666;6.634;2022-08-05T14:13:55;22.60;1.00
12959;DHT22;6544;51.666;6.634;2022-08-05T14:16:22;22.50;1.00
12959;DHT22;6544;51.666;6.634;2022-08-05T14:18:49;22.40;1.00
12959;DHT22;6544;51.666;6.634;2022-08-05T14:21:16;22.30;1.00
12959;DHT22;6544;51.666;6.634;2022-08-05T14:23:43;22.10;1.00
12959;DHT22;6544;51.666;6.634;2022-08-05T14:26:11;22.10;1.00
12959;DHT22;6544;51.666;6.634;2022-08-05T14:28:38;22.20;1.00
12959;DHT22;6544;51.666;6.634;2022-08-05T14:31:06;22.20;1.00
12959;DHT22;6544;51.666;6.634;2022-08-05T14:33:33;22.20;1.00
12959;DHT22;6544;51.666;6.634;2022-08-05T14:36:00;22.10;1.00
12959;DHT22;6544;51.666;6.634;2022-08-05T14:38:27;22.20;1.00
12959;DHT22;6544;51.666;6.634;2022-08-05T14:40:54;22.30;1.00
12959;DHT22;6544;51.666;6.634;2022-08-05T14:43:23;22.40;1.00
12959;DHT22;6544;51.666;6.634;2022-08-05T14:45:49;22.50;1.00
12959;DHT22;6544;51.666;6.634;2022-08-05T14:48:16;22.50;1.00
12959;DHT22;6544;51.666;6.634;2022-08-05T14:50:43;22.50;1.00
12959;DHT22;6544;51.666;6.634;2022-08-05T14:53:10;22.40;1.00
12959;DHT22;6544;51.666;6.634;2022-08-05T14:55:38;22.30;1.00
12959;DHT22;6544;51.666;6.634;2022-08-05T14:58:05;22.20;1.00
12959;DHT22;6544;51.666;6.634;2022-08-05T15:00:34;22.30;1.00
12959;DHT22;6544;51.666;6.634;2022-08-05T15:03:01;22.40;1.00
12959;DHT22;6544;51.666;6.634;2022-08-05T15:05:28;22.50;1.00
12959;DHT22;6544;51.666;6.634;2022-08-05T15:07:55;22.50;1.00
12959;DHT22;6544;51.666;6.634;2022-08-05T15:10:22;22.50;1.00
12959;DHT22;6544;51.666;6.634;2022-08-05T15:12:48;22.40;1.00
12959;DHT22;6544;51.666;6.634;2022-08-05T15:15:15;22.30;1.00
12959;DHT22;6544;51.666;6.634;2022-08-05T15:17:44;22.20;1.00
12959;DHT22;6544;51.666;6.634;2022-08-05T15:20:11;22.30;1.00
12959;DHT22;6544;51.666;6.634;2022-08-05T15:22:39;22.40;1.00
12959;DHT22;6544;51.666;6.634;2022-08-05T15:25:07;22.30;1.00
12959;DHT22;6544;51.666;6.634;2022-08-05T15:27:34;22.30;1.00
12959;DHT22;6544;51.666;6.634;2022-08-05T15:30:01;22.30;1.00
12959;DHT22;6544;51.666;6.634;2022-08-05T15:32:28;22.20;1.00
12959;DHT22;6544;51.666;6.634;2022-08-05T15:34:56;22.20;1.00
12959;DHT22;6544;51.666;6.634;2022-08-05T15:37:23;22.10;1.00
12959;DHT22;6544;51.666;6.634;2022-08-05T15:39:50;22.00;1.00
12959;DHT22;6544;51.666;6.634;2022-08-05T15:42:18;22.10;1.00
12959;DHT22;6544;51.666;6.634;2022-08-05T15:44:45;22.30;1.00
12959;DHT22;6544;51.666;6.634;2022-08-05T15:47:12;22.40;1.00
12959;DHT22;6544;51.666;6.634;2022-08-05T15:49:39;22.40;1.00
12959;DHT22;6544;51.666;6.634;2022-08-05T15:52:07;22.40;1.00
12959;DHT22;6544;51.666;6.634;2022-08-05T15:54:34;22.30;1.00
12959;DHT22;6544;51.666;6.634;2022-08-05T15:57:02;22.10;1.00
12959;DHT22;6544;51.666;6.634;2022-08-05T15:59:29;22.20;1.00
12959;DHT22;6544;51.666;6.634;2022-08-05T16:01:55;22.10;1.00
12959;DHT22;6544;51.666;6.634;2022-08-05T16:04:22;22.20;1.00
12959;DHT22;6544;51.666;6.634;2022-08-05T16:06:49;22.10;1.00